Domov               UVHVVR             MKGP            O straneh              
ZDRAVSTVENO VARSTVO RASTLIN
  MREŽA AGROMET. POSTAJ
 ► PROGNOSTIČNA OBVESTILA
AGROMETEOROLOŠKI PODATKI -
ARSO
OBVLADOVANJE TVEGANJ ZARADI
NEUGODNIH VREMENSKIH RAZMER
  ► NARAVNE NESREČE
  ► SUŠA/MOČA
  ► NAMAKANJE
  ► ŽLED (gozdarstvo)
KARTOGRAFSKI PRIKAZI
SPLETNE POVEZAVE
PROJEKTI IN PUBLIKACIJE

AGROMETEOROLOŠKA MREŽA: VREMENSKE POSTAJE IN FENOLOŠKA OPAZOVANJA

Pregled podatkov za lokacijo Rodine pri Trebnjem APS, meteorološka postaja 49195

Pregled senzorjev na lokaciji

ID Ime Zadnja
vrednost
Datum in čas
zadnje
spremembe
(Lokalni čas)
Tip
senzorja
3769 Sončno sevanje (W/m2) 603.19 W/m2 4.7.2020 17:00 Pyranometer SP-Lite
3770 Omočenost lista (U) 0 U 4.7.2020 17:00 A730WET
5064 Padavine (mm) 0 mm 4.7.2020 17:00 Generic 0.2 mm
3721 Relativna vlaga 2 m (% RH) 48.51 % RH 4.7.2020 17:00 50YA
3720 Temperatura 2 m (°C) 25.13 °C 4.7.2020 17:00 50YA
3726 Smer vetra (°) 121.43 ° 4.7.2020 17:00 566.2S-130
3725 Hitrost vetra (km/h) 5.8 km/h 4.7.2020 17:00 566.2S-176 (200km/h)

Pregled podatkov zadnjih 24 ur

Zap.
št.
Datum in čas
(Centralno
evropski čas)
Rodine pri Trebnjem APS
Sončno
sevanje
Omočenost
lista
Padavine Relativna
vlaga
2
m
Temperatura
2
m
Smer
vetra
Hitrost
vetra
1 4.7.2020 17:30
2 4.7.2020 17:00
3 4.7.2020 16:30
4 4.7.2020 16:00 603.2 0 0 48.5 25.1 121.4 5.8
5 4.7.2020 15:30 622.1 0 0 51.9 24.8 104.2 5
6 4.7.2020 15:00 636.1 0 0 54 24.7 63.8 5.8
7 4.7.2020 14:30 730.2 0 0 54.3 24.6 155.9 4.7
8 4.7.2020 14:00 596 0 0 53.7 24.3 60.8 5
9 4.7.2020 13:30 810.6 0 0 54.3 24.2 305.2 4.5
10 4.7.2020 13:00 578.3 0 0 57.9 23.4 159.9 5.8
11 4.7.2020 12:30 526.5 0 0 62.7 23.2 115.6 4.9
12 4.7.2020 12:00 424.4 0 0 66.6 22.4 145.4 5
13 4.7.2020 11:30 419.1 0 0 71.9 21.9 173.5 3.7
14 4.7.2020 11:00 312.4 0 0 74.8 21.3 164.4 6.2
15 4.7.2020 10:30 580.8 0 0 71.8 22.6 172 6.4
16 4.7.2020 10:00 558.1 0 0 64.7 22.6 98.1 4.8
17 4.7.2020 09:30 682.7 0 0 73.7 21.6 161.5 1.6
18 4.7.2020 09:00 462.2 0 0 89 19.1 220.3 0
19 4.7.2020 08:30 259.2 0 0 95.7 18.2 184.1 0
20 4.7.2020 08:00 427 0 0 100 16.6 150.8 0
21 4.7.2020 07:30 197.8 0 0 100 15.2 215.1 0.2
22 4.7.2020 07:00 131.5 1 0 100 14.5 160.9 0.4
23 4.7.2020 06:30 79 7 0 100 14.2 330 0.3
24 4.7.2020 06:00 60.9 10 0 100 14 345.7 0
25 4.7.2020 05:30 32.2 10 0 100 13.8 323 0.2
26 4.7.2020 05:00 14.1 10 0 100 13.8 310.2 0
27 4.7.2020 04:30 4 10 0 100 13.8 352.8 0
28 4.7.2020 04:00 0.8 10 0 100 13.9 330.5 0
29 4.7.2020 03:30 0.5 10 0 100 14 144.6 0
30 4.7.2020 03:00 0.6 10 0 100 14.2 285 0
31 4.7.2020 02:30 0.5 10 0 100 14.4 341.2 0
32 4.7.2020 02:00 0.5 10 0 100 14.5 108.5 0
33 4.7.2020 01:30 0.5 10 0 100 14.7 339 0
34 4.7.2020 01:00 0.6 10 0 100 15 3.6 0
35 4.7.2020 00:30 0.6 10 0 100 15.2 309.8 0
36 4.7.2020 00:00 0.5 10 0 100 15 338.9 0
37 3.7.2020 23:30 0.5 10 0 100 14.9 339.6 0
38 3.7.2020 23:00 0.5 10 0 100 14.9 53.9 0
39 3.7.2020 22:30 0.6 10 0 100 14.8 182.1 0
40 3.7.2020 22:00 0.5 10 0 100 15.1 314.4 0
41 3.7.2020 21:30 0.5 8 0 100 15.3 39.8 0
42 3.7.2020 21:00 0.5 5 0 100 15.6 140.6 0
43 3.7.2020 20:30 1.2 2 0 100 16.2 9 0
44 3.7.2020 20:00 6 0 0 99.3 17 33.5 0
45 3.7.2020 19:30 27.3 0 0 95.9 17.8 248 0
46 3.7.2020 19:00 40.5 0 0 89.8 18.7 18.1 0.2
47 3.7.2020 18:30 63.5 0 0 87.3 18.9 338.4 0.4
48 3.7.2020 18:00 185.8 0 0 85 19.3 155.7 1.8
© 2011 Ministrstvo za kmetijstvo, gozdarstvo in prehrano. Vse pravice pridržane.